*** (BERICHT 15/10/2018): Er wordt gewerkt achter de schermen van deze website! De website is aan vernieuwing toe waardoor dingen op de site onbeschikbaar zullen zijn, of de site soms onbereikbaar kan zijn ***

Weerstation Zoersel Live Webcam Weerstation Zoersel Live Webcam


sateliet wolkenradar *NIEUW*  


Doneren

CBI


onweer radar meer informatie blitzortung!


regen radar  rain snow radar


***  

Het weer levert geen direct gevaar op.    Er zijn geen waarschuwingen afgegeven.

metar rapporten vliegvelden

   
EBAW - Antwerp
gewijzigd: 18-10-2018 11:50
licht bewolkt  
licht bewolkt  
   wind: nno 13 km/h
wind: nno 13 km/h
temperatuur: 15°C
dauwpunt: 11°C
vochtigheid: 77%
barometer: 1025 hPa
bewolking: licht bewolkt
zicht: meer dan 10 km
bewolking: licht bewolkt 1500 ft
EBAW 180950Z 03007KT 360V060 9999 FEW015 15/11 Q1025 NOSIG
EBLG - Li├Ęge
gewijzigd: 18-10-2018 11:50
grotendeels bewolkt  
grotendeels bewolkt  
   wind: nno 18,5 km/h
wind: nno 18,5 km/h
temperatuur: 13°C
dauwpunt: 11°C
vochtigheid: 88%
barometer: 1024 hPa
bewolking: grotendeels bewolkt
zicht: meer dan 10 km
bewolking: gedeeltelijk bewolkt 700 ft,
grotendeels bewolkt 1200 ft
EBLG 180950Z 02010KT 9999 SCT007 BKN012 13/11 Q1024 NOSIG
EBCV - Mons/Bergen
gewijzigd: 18-10-2018 11:55
grotendeels bewolkt  
grotendeels bewolkt  
   wind: nno 18,5 km/h
wind: nno 18,5 km/h
temperatuur: 14°C
dauwpunt: 11°C
vochtigheid: 82%
barometer: 1025 hPa
bewolking: grotendeels bewolkt
zicht: meer dan 10 km
bewolking: grotendeels bewolkt 1400 ft
EBCV 180955Z AUTO 02010KT 9999 BKN014/// 14/11 Q1025 GRN
EHBK - Maastricht
gewijzigd: 18-10-2018 11:55
bewolking  
bewolking  
   wind: no 20,4 km/h
wind: no 20,4 km/h
temperatuur: 14°C
dauwpunt: 11°C
vochtigheid: 82%
barometer: 1024 hPa
bewolking: bewolking
zicht: meer dan 10 km
bewolking: bewolking 3100 ft
EHBK 180955Z AUTO 04011KT 9999 OVC031 14/11 Q1024 TEMPO 6000 BKN009
ELLX - Luxemburg
gewijzigd: 18-10-2018 11:50
grotendeels bewolkt  
grotendeels bewolkt  
   wind: no 24,1 km/h
wind: no 24,1 km/h
temperatuur: 15°C
dauwpunt: 11°C
vochtigheid: 77%
barometer: 1022 hPa
bewolking: grotendeels bewolkt
zicht: 2 km
bewolking: gedeeltelijk bewolkt 1000 ft,
grotendeels bewolkt 1200 ft
ELLX 180950Z 04013KT 2200 SCT010 BKN012 15/11 Q1022 BECMG 5000
EBOS - Oostende
gewijzigd: 18-10-2018 11:50
grotendeels bewolkt  
grotendeels bewolkt  
   wind: no 27,8 km/h
wind: no 27,8 km/h
temperatuur: 15°C
dauwpunt: 11°C
vochtigheid: 77%
barometer: 1025 hPa
bewolking: grotendeels bewolkt
zicht: meer dan 10 km
bewolking: licht bewolkt 1800 ft,
grotendeels bewolkt 4200 ft
EBOS 180950Z 04015KT 9999 FEW018 BKN042 15/11 Q1025 NOSIG

script ontwikkeld door  Saratoga-weather.org aangepast voor de template door  Weerstation Leuven